Nearby METAR Reports

 

KRYN - Tucson/Ryan Fld, Arizona, USA
Distance from station: SSW 16mi, 26km
Updated: Sat, 24-Sep-2022 12:45pm MST
Clear
Clear
 Wind from calm
Wind: Calm
Temperature: 93°F , 34°C
Dew Point: 57°F , 14°C
Humidity: 30%
Barometer: 30.03 inHg , 1016.9 hPa
Clouds: Clear
Visibility: 10 miles , 16 km
2022/09/24 19:45 KRYN 241945Z 00000KT 10SM CLR 34/14 A3003
KTUS - Tucson, Arizona, USA
Distance from station: SSE 18mi, 28km
Updated: Sat, 24-Sep-2022 12:53pm MST
Clear
Clear
 Wind from varies
Wind: varies 5 mph , 7 km/h
Temperature: 95°F , 35°C
Dew Point: 55°F , 13°C
Humidity: 26%
Barometer: 30.07 inHg , 1018.3 hPa
Clouds: Clear
Visibility: 10 miles , 16 km
2022/09/24 19:53 KTUS 241953Z VRB04KT 10SM CLR 35/13 A3007 RMK AO2 LTG DSNT NE AND S SLP129 T03500128
 
KDMA - Davis/Tucson, Arizona, USA
Distance from station: SE 18mi, 29km
Updated: Sat, 24-Sep-2022 12:56pm MST
Clear
Clear
 Wind from WNW
Wind: WNW 3 mph , 6 km/h
Temperature: 93°F , 34°C
Dew Point: 55°F , 13°C
Humidity: 28%
Barometer: 30.03 inHg , 1016.9 hPa
Clouds: Clear
Visibility: 10 miles , 16 km
2022/09/24 19:56 KDMA 241956Z AUTO 30003KT 10SM CLR 34/13 A3003 RMK AO2 LTG DSNT NE SLP123 T03350130 $
KCGZ - Casa Granda, Arizona, USA
Distance from station: NW 57mi, 92km
Updated: Sat, 24-Sep-2022 12:56pm MST
Clear
Clear
 Wind from varies
Wind: varies 6 mph , 9 km/h
Temperature: 93°F , 34°C
Dew Point: 61°F , 16°C
Humidity: 34%
Barometer: 30.00 inHg , 1015.9 hPa
Clouds: Clear
Visibility: 10 miles , 16 km
2022/09/24 19:56 KCGZ 241956Z AUTO VRB05KT 10SM CLR 34/16 A3000 RMK AO2 SLP141 T03440161 $
 
KALK - Pioneer Airfield, Arizona, USA
Distance from station: SE 65mi, 104km
Updated: Sat, 24-Sep-2022 12:56pm MST
Clear
Clear
 Wind from varies
Wind: varies 5 mph , 7 km/h
Temperature: 84°F , 29°C
Dew Point: 54°F , 12°C
Humidity: 35%
Barometer: 30.21 inHg , 1023 hPa
Clouds: Clear
Visibility: 10 miles , 16 km
2022/09/24 19:56 KALK 241956Z AUTO VRB04KT 10SM CLR 29/12 A3021 RMK AO2 SLP135 T02940117
KOLS - Nogales, Arizona, USA
Distance from station: S 67mi, 108km
Updated: Sat, 24-Sep-2022 12:54pm MST
Clear
Clear
 Wind from WSW
Wind: WSW 8 mph , 13 km/h
Temperature: 90°F , 32°C
Dew Point: 55°F , 13°C
Humidity: 31%
Barometer: 30.14 inHg , 1020.7 hPa
Clouds: Clear
Visibility: 10 miles , 16 km
2022/09/24 19:54 KOLS 241954Z AUTO 24007KT 10SM CLR 32/13 A3014 RMK AO2 LTG DSNT N SLP137 T03170133
 
KFHU - Fort Huachuca, Arizona, USA
Distance from station: SE 69mi, 110km
Updated: Sat, 24-Sep-2022 12:56pm MST
Clear
Clear
 Wind from NW
Wind: NW 9 mph , 15 km/h
Temperature: 86°F , 30°C
Dew Point: 50°F , 10°C
Humidity: 29%
Barometer: 30.21 inHg , 1023 hPa
Clouds: Clear
Visibility: 10 miles , 16 km
2022/09/24 19:56 KFHU 241956Z AUTO 32008KT 10SM CLR 30/10 A3021 RMK AO2 LTG DSNT W SLP165 T03000100
KIWA - Chandler/Mesa, Arizona, USA
Distance from station: NNW 73mi, 117km
Updated: Sat, 24-Sep-2022 12:52pm MST
Clear
Clear
 Wind from SW
Wind: SW 6 mph , 9 km/h
Temperature: 95°F , 35°C
Dew Point: 59°F , 15°C
Humidity: 30%
Barometer: 29.99 inHg , 1015.6 hPa
Clouds: Clear
Visibility: 10 miles , 16 km
2022/09/24 19:52 KIWA 241952Z 23005KT 10SM CLR 35/15 A2999